createdAt,value
2018-04-15T00:00:51.600Z,19.50
2018-04-15T00:03:54.970Z,22.23
2018-04-15T00:06:59.142Z,21.80
2018-04-15T00:10:02.497Z,20.93
2018-04-15T00:13:06.748Z,21.83
2018-04-15T00:16:10.120Z,21.40
2018-04-15T00:19:14.253Z,24.73
2018-04-15T00:22:17.660Z,25.10
2018-04-15T00:25:21.049Z,26.90
2018-04-15T00:28:24.403Z,25.90
2018-04-15T00:31:27.847Z,23.63
2018-04-15T00:34:31.210Z,20.53
2018-04-15T00:37:34.577Z,21.93
2018-04-15T00:40:37.944Z,21.03
2018-04-15T00:43:41.353Z,19.73
2018-04-15T00:46:44.705Z,21.07
2018-04-15T00:49:48.069Z,19.23
2018-04-15T00:52:51.618Z,18.53
2018-04-15T00:55:55.736Z,20.93
2018-04-15T00:58:59.862Z,18.77
2018-04-15T01:02:03.985Z,20.20
2018-04-15T01:05:08.125Z,23.40
2018-04-15T01:08:11.482Z,19.30
2018-04-15T01:11:15.584Z,21.97
2018-04-15T01:14:18.937Z,22.83
2018-04-15T01:17:22.308Z,21.00
2018-04-15T01:20:26.428Z,23.77
2018-04-15T01:23:30.556Z,23.37
2018-04-15T01:26:33.908Z,22.77
2018-04-15T01:29:37.306Z,19.37
2018-04-15T01:32:40.670Z,19.67
2018-04-15T01:35:44.010Z,18.93
2018-04-15T01:38:48.127Z,19.80
2018-04-15T01:41:53.009Z,21.33
2018-04-15T01:44:56.385Z,21.03
2018-04-15T01:48:00.503Z,20.50
2018-04-15T01:51:04.627Z,20.23
2018-04-15T01:54:08.808Z,20.53
2018-04-15T01:57:12.173Z,20.47
2018-04-15T02:00:15.532Z,19.57
2018-04-15T02:03:19.659Z,20.10
2018-04-15T02:06:23.791Z,22.07
2018-04-15T02:09:27.158Z,22.67
2018-04-15T02:12:30.525Z,23.07
2018-04-15T02:15:33.888Z,23.13
2018-04-15T02:18:37.250Z,24.33
2018-04-15T02:21:41.435Z,24.97
2018-04-15T02:24:44.798Z,24.00
2018-04-15T02:27:48.942Z,26.63
2018-04-15T02:30:52.309Z,24.30
2018-04-15T02:33:56.441Z,26.43
2018-04-15T02:36:59.857Z,26.73
2018-04-15T02:40:03.208Z,28.40
2018-04-15T02:43:06.566Z,25.70
2018-04-15T02:46:09.928Z,25.73
2018-04-15T02:49:13.298Z,30.53
2018-04-15T02:52:16.640Z,28.13
2018-04-15T02:55:19.988Z,31.07
2018-04-15T02:58:23.389Z,31.67
2018-04-15T03:01:26.750Z,34.90
2018-04-15T03:04:30.114Z,35.90
2018-04-15T03:07:34.249Z,37.13
2018-04-15T03:10:37.600Z,39.67
2018-04-15T03:13:40.956Z,41.87
2018-04-15T03:16:44.321Z,39.23
2018-04-15T03:19:48.441Z,37.53
2018-04-15T03:22:52.561Z,36.03
2018-04-15T03:25:56.688Z,36.37
2018-04-15T03:29:00.057Z,37.10
2018-04-15T03:32:03.417Z,35.33
2018-04-15T03:35:06.812Z,36.57
2018-04-15T03:38:10.173Z,38.70
2018-04-15T03:41:14.297Z,38.73
2018-04-15T03:44:18.425Z,39.23
2018-04-15T03:47:21.786Z,39.67
2018-04-15T03:50:26.680Z,36.87
2018-04-15T03:53:30.155Z,36.47
2018-04-15T03:56:33.516Z,38.33
2018-04-15T03:59:36.869Z,38.00
2018-04-15T04:02:40.223Z,37.90
2018-04-15T04:05:43.613Z,38.50
2018-04-15T04:08:46.967Z,39.63
2018-04-15T04:11:50.323Z,36.63
2018-04-15T04:14:53.686Z,38.13
2018-04-15T04:18:14.855Z,36.87
2018-04-15T04:21:36.740Z,37.83
2018-04-15T04:24:57.936Z,36.00
2018-04-15T04:28:01.384Z,36.37
2018-04-15T04:31:04.762Z,33.90
2018-04-15T04:34:08.122Z,35.00
2018-04-15T04:37:11.484Z,36.63
2018-04-15T04:40:14.848Z,37.30
2018-04-15T04:43:18.283Z,35.40
2018-04-15T04:46:21.641Z,37.50
2018-04-15T04:49:25.005Z,37.50
2018-04-15T04:52:29.133Z,35.13
2018-04-15T04:55:32.502Z,36.93
2018-04-15T04:58:35.848Z,36.17
2018-04-15T05:01:39.213Z,37.13
2018-04-15T05:04:43.360Z,37.30
2018-04-15T05:07:46.784Z,33.97
2018-04-15T05:10:50.167Z,34.43
2018-04-15T05:13:53.725Z,34.67
2018-04-15T05:16:57.843Z,33.67
2018-04-15T05:20:01.973Z,35.57
2018-04-15T05:23:06.104Z,33.90
2018-04-15T05:26:09.456Z,36.50
2018-04-15T05:29:12.837Z,37.07
2018-04-15T05:32:16.228Z,39.17
2018-04-15T05:35:19.593Z,36.03
2018-04-15T05:38:22.973Z,37.37
2018-04-15T05:41:27.120Z,36.80
2018-04-15T05:44:30.471Z,38.07
2018-04-15T05:47:33.840Z,38.63
2018-04-15T05:50:37.209Z,38.27
2018-04-15T05:53:40.581Z,38.60
2018-04-15T05:56:43.973Z,39.03
2018-04-15T05:59:47.359Z,38.20
2018-04-15T06:02:51.694Z,35.60
2018-04-15T06:05:55.077Z,37.43
2018-04-15T06:08:58.431Z,36.83
2018-04-15T06:12:01.788Z,35.57
2018-04-15T06:15:05.143Z,36.13
2018-04-15T06:18:08.496Z,36.93
2018-04-15T06:21:11.866Z,35.33
2018-04-15T06:24:15.227Z,31.57
2018-04-15T06:27:18.601Z,34.07
2018-04-15T06:30:22.741Z,31.60
2018-04-15T06:33:26.094Z,30.77
2018-04-15T06:36:29.452Z,29.80
2018-04-15T06:39:32.811Z,30.63
2018-04-15T06:42:36.944Z,31.33
2018-04-15T06:45:41.080Z,32.03
2018-04-15T06:48:44.435Z,33.63
2018-04-15T06:51:47.879Z,32.57
2018-04-15T06:54:51.266Z,30.33
2018-04-15T06:57:54.667Z,29.13
2018-04-15T07:00:58.038Z,32.37
2018-04-15T07:04:01.389Z,33.23
2018-04-15T07:07:04.869Z,31.90
2018-04-15T07:10:08.265Z,32.60
2018-04-15T07:13:11.632Z,30.27
2018-04-15T07:16:14.996Z,30.97
2018-04-15T07:19:18.496Z,32.90
2018-04-15T07:22:21.883Z,29.73
2018-04-15T07:25:25.256Z,31.13
2018-04-15T07:28:29.385Z,30.40
2018-04-15T07:31:32.748Z,30.67
2018-04-15T07:34:36.124Z,33.10
2018-04-15T07:37:39.498Z,30.00
2018-04-15T07:40:42.875Z,30.63
2018-04-15T07:43:47.013Z,30.33
2018-04-15T07:46:50.399Z,29.50
2018-04-15T07:49:53.778Z,29.63
2018-04-15T07:52:57.913Z,27.73
2018-04-15T07:56:01.314Z,24.60
2018-04-15T07:59:04.714Z,25.17
2018-04-15T08:02:08.093Z,25.30
2018-04-15T08:05:12.225Z,24.83
2018-04-15T08:08:16.354Z,25.17
2018-04-15T08:11:19.737Z,21.87
2018-04-15T08:14:23.862Z,19.77
2018-04-15T08:17:27.224Z,23.17
2018-04-15T08:20:30.610Z,22.90
2018-04-15T08:23:33.990Z,22.53
2018-04-15T08:26:38.217Z,22.63
2018-04-15T08:29:41.597Z,21.40
2018-04-15T08:32:45.000Z,20.97
2018-04-15T08:35:48.384Z,19.93
2018-04-15T08:38:51.749Z,20.17
2018-04-15T08:41:55.141Z,20.13
2018-04-15T08:44:58.504Z,19.53
2018-04-15T08:48:01.914Z,20.33
2018-04-15T08:51:05.262Z,17.67
2018-04-15T08:54:09.451Z,16.50
2018-04-15T08:57:13.592Z,14.27
2018-04-15T09:00:16.967Z,14.70
2018-04-15T09:03:20.320Z,13.93
2018-04-15T09:06:23.697Z,12.63
2018-04-15T09:09:27.857Z,12.77
2018-04-15T09:12:31.221Z,13.70
2018-04-15T09:15:35.359Z,13.73
2018-04-15T09:18:38.846Z,13.00
2018-04-15T09:21:42.205Z,12.87
2018-04-15T09:24:45.570Z,12.93
2018-04-15T09:27:48.946Z,11.73
2018-04-15T09:30:57.738Z,10.50
2018-04-15T09:34:01.107Z,10.93
2018-04-15T09:37:04.708Z,10.90
2018-04-15T09:40:08.094Z,13.13
2018-04-15T09:43:11.464Z,12.87
2018-04-15T09:46:15.645Z,13.30
2018-04-15T09:49:19.017Z,14.77
2018-04-15T09:52:22.412Z,13.90
2018-04-15T09:55:25.820Z,13.57
2018-04-15T09:58:29.327Z,14.47
2018-04-15T10:01:32.750Z,14.20
2018-04-15T10:04:36.126Z,14.67
2018-04-15T10:07:39.492Z,14.77
2018-04-15T10:10:42.871Z,15.47
2018-04-15T10:13:47.030Z,15.47
2018-04-15T10:16:50.474Z,15.53
2018-04-15T10:19:53.827Z,15.80
2018-04-15T10:22:57.220Z,16.20
2018-04-15T10:26:00.574Z,16.00
2018-04-15T10:29:03.967Z,17.93
2018-04-15T10:32:07.343Z,15.00
2018-04-15T10:35:10.712Z,16.23
2018-04-15T10:38:14.100Z,16.97
2018-04-15T10:41:18.251Z,17.23
2018-04-15T10:44:21.833Z,16.57
2018-04-15T10:47:25.257Z,17.13
2018-04-15T10:50:28.613Z,14.43
2018-04-15T10:53:32.744Z,15.53
2018-04-15T10:56:36.126Z,14.30
2018-04-15T10:59:40.252Z,15.73
2018-04-15T11:02:44.408Z,16.30
2018-04-15T11:05:47.845Z,17.57
2018-04-15T11:08:51.244Z,17.13
2018-04-15T11:11:54.663Z,18.70
2018-04-15T11:14:58.811Z,17.43
2018-04-15T11:18:02.201Z,17.63
2018-04-15T11:21:05.693Z,17.40
2018-04-15T11:24:09.853Z,18.57
2018-04-15T11:27:13.329Z,18.13
2018-04-15T11:30:16.705Z,18.47
2018-04-15T11:36:30.527Z,18.20
2018-04-15T11:39:33.887Z,19.93
2018-04-15T11:42:37.278Z,19.50
2018-04-15T11:45:40.689Z,19.77
2018-04-15T11:48:44.065Z,20.00
2018-04-15T11:51:48.226Z,21.57
2018-04-15T11:54:51.619Z,20.40
2018-04-15T11:57:55.125Z,21.23
2018-04-15T12:00:58.499Z,21.00
2018-04-15T12:04:01.896Z,20.13
2018-04-15T12:07:05.487Z,20.90
2018-04-15T12:10:09.658Z,20.07
2018-04-15T12:13:13.024Z,21.17
2018-04-15T12:16:16.424Z,20.83
2018-04-15T12:19:19.809Z,20.93
2018-04-15T12:22:23.948Z,21.53
2018-04-15T12:25:27.543Z,21.93
2018-04-15T12:28:30.916Z,22.10
2018-04-15T12:31:34.321Z,21.73
2018-04-15T12:34:38.802Z,22.40
2018-04-15T12:37:42.220Z,22.50
2018-04-15T12:40:45.903Z,23.63
2018-04-15T12:43:49.342Z,23.47
2018-04-15T12:46:52.735Z,22.23
2018-04-15T12:49:56.157Z,23.87
2018-04-15T12:53:00.311Z,22.97
2018-04-15T12:56:03.799Z,22.00
2018-04-15T12:59:07.318Z,23.73
2018-04-15T13:02:10.778Z,22.97
2018-04-15T13:05:14.948Z,25.63
2018-04-15T13:08:18.323Z,24.47
2018-04-15T13:11:21.700Z,26.10
2018-04-15T13:14:25.103Z,25.97
2018-04-15T13:17:29.441Z,27.60
2018-04-15T13:20:32.883Z,27.60
2018-04-15T13:23:36.255Z,27.07
2018-04-15T13:26:39.735Z,25.37
2018-04-15T13:29:43.106Z,26.97
2018-04-15T13:32:46.521Z,28.60
2018-04-15T13:35:50.668Z,28.90
2018-04-15T13:38:54.121Z,28.17
2018-04-15T13:41:57.511Z,28.47
2018-04-15T13:45:00.961Z,26.80
2018-04-15T13:48:04.324Z,28.47
2018-04-15T13:51:07.705Z,26.93
2018-04-15T13:54:11.077Z,26.77
2018-04-15T13:57:14.492Z,26.40
2018-04-15T14:00:17.913Z,27.43
2018-04-15T14:03:21.306Z,27.23
2018-04-15T14:06:24.687Z,26.70
2018-04-15T14:09:28.051Z,27.07
2018-04-15T14:12:31.445Z,29.20
2018-04-15T14:15:35.571Z,29.00
2018-04-15T14:18:38.936Z,29.77
2018-04-15T14:21:42.316Z,29.17
2018-04-15T14:24:45.682Z,28.80
2018-04-15T14:27:49.190Z,29.70
2018-04-15T14:30:52.606Z,28.47
2018-04-15T14:33:56.345Z,25.47
2018-04-15T14:36:59.809Z,26.47
2018-04-15T14:40:03.280Z,24.43
2018-04-15T14:43:06.665Z,25.33
2018-04-15T14:46:10.847Z,25.73
2018-04-15T14:49:14.242Z,28.23
2018-04-15T14:52:17.622Z,26.87
2018-04-15T14:55:21.128Z,25.87
2018-04-15T14:58:24.606Z,26.77
2018-04-15T15:01:28.017Z,27.73
2018-04-15T15:04:31.396Z,25.90
2018-04-15T15:07:35.545Z,25.13
2018-04-15T15:10:38.916Z,26.43
2018-04-15T15:13:43.112Z,26.67
2018-04-15T15:16:46.492Z,26.47
2018-04-15T15:19:51.393Z,24.07
2018-04-15T15:22:54.769Z,26.30
2018-04-15T15:25:58.143Z,24.80
2018-04-15T15:29:01.583Z,26.53
2018-04-15T15:32:05.094Z,27.07
2018-04-15T15:35:08.486Z,27.60
2018-04-15T15:38:11.872Z,27.53
2018-04-15T15:41:16.185Z,26.90
2018-04-15T15:44:20.322Z,26.20
2018-04-15T15:47:23.794Z,26.83
2018-04-15T15:50:27.150Z,27.00
2018-04-15T15:53:30.534Z,27.13
2018-04-15T15:56:33.969Z,25.97
2018-04-15T15:59:37.401Z,26.10
2018-04-15T16:02:41.645Z,25.53
2018-04-15T16:05:45.032Z,26.83
2018-04-15T16:08:49.186Z,27.50
2018-04-15T16:11:52.654Z,27.13
2018-04-15T16:14:56.066Z,29.73
2018-04-15T16:17:59.432Z,29.33
2018-04-15T16:21:03.622Z,28.83
2018-04-15T16:24:07.073Z,29.33
2018-04-15T16:27:10.544Z,29.03
2018-04-15T16:30:13.927Z,27.47
2018-04-15T16:33:17.347Z,30.27
2018-04-15T16:36:20.739Z,30.57
2018-04-15T16:39:24.144Z,29.43
2018-04-15T16:42:28.382Z,28.13
2018-04-15T16:45:32.589Z,26.57
2018-04-15T16:48:35.963Z,28.10
2018-04-15T16:51:39.381Z,28.67
2018-04-15T16:54:42.749Z,28.87
2018-04-15T16:57:46.133Z,27.97
2018-04-15T17:00:49.523Z,27.13
2018-04-15T17:03:52.933Z,27.10
2018-04-15T17:06:56.309Z,30.23
2018-04-15T17:09:59.675Z,28.07
2018-04-15T17:13:03.109Z,28.30
2018-04-15T17:16:06.501Z,28.43
2018-04-15T17:19:10.628Z,28.73
2018-04-15T17:22:14.035Z,27.50
2018-04-15T17:25:17.458Z,30.97
2018-04-15T17:28:20.796Z,29.50
2018-04-15T17:31:24.168Z,28.23
2018-04-15T17:34:27.588Z,29.03
2018-04-15T17:37:30.960Z,32.13
2018-04-15T17:40:34.321Z,30.27
2018-04-15T17:43:37.730Z,30.40
2018-04-15T17:46:41.098Z,30.17
2018-04-15T17:49:45.263Z,29.13
2018-04-15T17:52:48.639Z,29.30
2018-04-15T17:55:52.021Z,30.77
2018-04-15T17:58:56.187Z,30.93
2018-04-15T18:01:59.515Z,30.80
2018-04-15T18:05:04.405Z,31.20
2018-04-15T18:08:07.802Z,30.70
2018-04-15T18:11:11.177Z,30.90
2018-04-15T18:14:15.310Z,31.97
2018-04-15T18:17:18.731Z,31.80
2018-04-15T18:20:22.080Z,31.97
2018-04-15T18:23:25.445Z,31.73
2018-04-15T18:26:28.832Z,31.57
2018-04-15T18:29:32.217Z,33.60
2018-04-15T18:32:35.630Z,33.20
2018-04-15T18:35:39.012Z,32.33
2018-04-15T18:38:42.379Z,35.20
2018-04-15T18:41:45.815Z,34.73
2018-04-15T18:44:49.188Z,33.00
2018-04-15T18:47:53.314Z,36.20
2018-04-15T18:50:57.461Z,35.27
2018-04-15T18:54:00.847Z,35.03
2018-04-15T18:57:04.233Z,38.90
2018-04-15T19:00:08.371Z,37.60
2018-04-15T19:03:11.754Z,36.53
2018-04-15T19:06:15.143Z,38.57
2018-04-15T19:09:19.293Z,34.90
2018-04-15T19:12:22.770Z,37.73
2018-04-15T19:15:26.298Z,40.77
2018-04-15T19:18:29.708Z,41.13
2018-04-15T19:21:33.100Z,40.67
2018-04-15T19:24:36.589Z,39.60
2018-04-15T19:27:40.028Z,38.63
2018-04-15T19:30:43.385Z,40.00
2018-04-15T19:33:46.812Z,38.70
2018-04-15T19:36:50.225Z,39.10
2018-04-15T19:39:53.597Z,39.53
2018-04-15T19:42:56.978Z,40.00
2018-04-15T19:46:00.360Z,39.93
2018-04-15T19:49:04.581Z,38.67
2018-04-15T19:52:08.741Z,39.77
2018-04-15T19:55:12.304Z,41.93
2018-04-15T19:58:16.625Z,37.57
2018-04-15T20:01:20.836Z,37.77
2018-04-15T20:04:24.977Z,40.70
2018-04-15T20:07:28.492Z,39.63
2018-04-15T20:10:31.874Z,38.33
2018-04-15T20:13:35.267Z,40.40
2018-04-15T20:16:39.407Z,37.93
2018-04-15T20:19:42.909Z,39.00
2018-04-15T20:22:47.029Z,40.67
2018-04-15T20:25:50.631Z,42.97
2018-04-15T20:28:54.007Z,40.90
2018-04-15T20:31:58.447Z,43.97
2018-04-15T20:35:01.906Z,42.30
2018-04-15T20:38:05.275Z,42.53
2018-04-15T20:41:08.650Z,42.73
2018-04-15T20:44:12.053Z,44.17
2018-04-15T20:47:15.467Z,42.67
2018-04-15T20:50:18.837Z,42.40
2018-04-15T20:53:22.212Z,42.40
2018-04-15T20:56:26.350Z,39.57
2018-04-15T20:59:30.473Z,41.07
2018-04-15T21:02:33.896Z,40.03
2018-04-15T21:05:37.265Z,37.67
2018-04-15T21:08:41.409Z,40.50
2018-04-15T21:11:44.800Z,39.70
2018-04-15T21:14:48.184Z,39.37
2018-04-15T21:17:52.318Z,36.97
2018-04-15T21:20:55.814Z,39.37
2018-04-15T21:23:59.181Z,40.03
2018-04-15T21:27:03.319Z,38.63
2018-04-15T21:30:06.711Z,36.93
2018-04-15T21:33:10.855Z,36.87
2018-04-15T21:36:14.261Z,37.20
2018-04-15T21:39:17.660Z,36.40
2018-04-15T21:42:21.039Z,34.90
2018-04-15T21:45:24.407Z,37.60
2018-04-15T21:48:27.781Z,34.87
2018-04-15T21:51:31.142Z,35.67
2018-04-15T21:54:34.516Z,36.10
2018-04-15T21:57:38.658Z,36.27
2018-04-15T22:00:42.038Z,37.37
2018-04-15T22:03:46.164Z,35.77
2018-04-15T22:06:49.589Z,36.00
2018-04-15T22:09:52.971Z,36.33
2018-04-15T22:13:12.425Z,38.77
2018-04-15T22:16:16.766Z,37.40
2018-04-15T22:19:20.135Z,35.03
2018-04-15T22:22:23.489Z,37.20
2018-04-15T22:25:26.873Z,35.50
2018-04-15T22:28:30.230Z,36.43
2018-04-15T22:31:33.595Z,37.97
2018-04-15T22:34:36.969Z,38.00
2018-04-15T22:37:40.418Z,36.23
2018-04-15T22:40:45.297Z,36.43
2018-04-15T22:43:48.837Z,37.20
2018-04-15T22:46:52.305Z,39.10
2018-04-15T22:50:01.248Z,36.83
2018-04-15T22:53:04.593Z,37.60
2018-04-15T22:56:10.233Z,36.73
2018-04-15T22:59:14.044Z,37.63
2018-04-15T23:02:17.406Z,36.47
2018-04-15T23:05:20.791Z,37.43
2018-04-15T23:08:24.219Z,38.00
2018-04-15T23:11:27.593Z,39.27
2018-04-15T23:14:30.944Z,37.90
2018-04-15T23:17:34.327Z,39.23
2018-04-15T23:20:37.686Z,38.80
2018-04-15T23:23:41.928Z,38.83
2018-04-15T23:26:45.400Z,39.83
2018-04-15T23:29:49.541Z,38.97
2018-04-15T23:32:52.887Z,38.83
2018-04-15T23:35:57.744Z,39.13
2018-04-15T23:39:01.886Z,38.80
2018-04-15T23:42:05.243Z,38.70
2018-04-15T23:45:08.602Z,38.47
2018-04-15T23:48:11.973Z,40.67
2018-04-15T23:51:15.345Z,42.43
2018-04-15T23:54:18.710Z,43.60
2018-04-15T23:57:22.069Z,41.63
